sensor_id;sensor_type;location;lat;lon;timestamp;P1;durP1;ratioP1;P2;durP2;ratioP2
14074;SDS011;12831;52.392;13.066;2023-02-11T00:00:57;43.67;;;23.00;;
14074;SDS011;12831;52.392;13.066;2023-02-11T00:03:23;41.45;;;23.33;;
14074;SDS011;12831;52.392;13.066;2023-02-11T00:05:56;39.22;;;22.63;;
14074;SDS011;12831;52.392;13.066;2023-02-11T00:08:22;46.40;;;23.40;;
14074;SDS011;12831;52.392;13.066;2023-02-11T00:10:50;42.85;;;22.52;;
14074;SDS011;12831;52.392;13.066;2023-02-11T00:13:16;41.92;;;21.75;;
14074;SDS011;12831;52.392;13.066;2023-02-11T00:15:42;39.92;;;22.27;;
14074;SDS011;12831;52.392;13.066;2023-02-11T00:18:08;43.28;;;23.73;;
14074;SDS011;12831;52.392;13.066;2023-02-11T00:20:34;35.47;;;20.67;;
14074;SDS011;12831;52.392;13.066;2023-02-11T00:22:59;39.28;;;21.42;;
14074;SDS011;12831;52.392;13.066;2023-02-11T00:25:25;37.72;;;21.58;;
14074;SDS011;12831;52.392;13.066;2023-02-11T00:27:51;37.60;;;21.08;;
14074;SDS011;12831;52.392;13.066;2023-02-11T00:30:16;42.33;;;23.42;;
14074;SDS011;12831;52.392;13.066;2023-02-11T00:32:42;41.28;;;22.30;;
14074;SDS011;12831;52.392;13.066;2023-02-11T00:35:08;41.58;;;24.73;;
14074;SDS011;12831;52.392;13.066;2023-02-11T00:37:34;35.33;;;21.60;;
14074;SDS011;12831;52.392;13.066;2023-02-11T00:40:01;36.55;;;21.50;;
14074;SDS011;12831;52.392;13.066;2023-02-11T00:42:31;40.55;;;20.10;;
14074;SDS011;12831;52.392;13.066;2023-02-11T00:44:57;38.45;;;21.02;;
14074;SDS011;12831;52.392;13.066;2023-02-11T00:47:23;35.90;;;19.95;;
14074;SDS011;12831;52.392;13.066;2023-02-11T00:49:49;45.15;;;21.63;;
14074;SDS011;12831;52.392;13.066;2023-02-11T00:52:14;36.97;;;19.77;;
14074;SDS011;12831;52.392;13.066;2023-02-11T00:54:40;39.15;;;21.08;;
14074;SDS011;12831;52.392;13.066;2023-02-11T00:57:06;41.55;;;21.67;;
14074;SDS011;12831;52.392;13.066;2023-02-11T00:59:32;34.65;;;21.25;;
14074;SDS011;12831;52.392;13.066;2023-02-11T01:01:57;32.50;;;19.15;;
14074;SDS011;12831;52.392;13.066;2023-02-11T01:04:23;37.83;;;20.58;;
14074;SDS011;12831;52.392;13.066;2023-02-11T01:06:49;37.15;;;21.75;;
14074;SDS011;12831;52.392;13.066;2023-02-11T01:09:15;38.15;;;19.50;;
14074;SDS011;12831;52.392;13.066;2023-02-11T01:11:40;38.90;;;21.00;;
14074;SDS011;12831;52.392;13.066;2023-02-11T01:14:06;40.40;;;20.58;;
14074;SDS011;12831;52.392;13.066;2023-02-11T01:16:32;38.35;;;21.27;;
14074;SDS011;12831;52.392;13.066;2023-02-11T01:18:57;36.53;;;19.88;;
14074;SDS011;12831;52.392;13.066;2023-02-11T01:21:24;38.13;;;20.92;;
14074;SDS011;12831;52.392;13.066;2023-02-11T01:23:50;38.33;;;20.73;;
14074;SDS011;12831;52.392;13.066;2023-02-11T01:26:16;32.90;;;19.55;;
14074;SDS011;12831;52.392;13.066;2023-02-11T01:28:42;33.92;;;19.60;;
14074;SDS011;12831;52.392;13.066;2023-02-11T01:31:08;36.72;;;20.33;;
14074;SDS011;12831;52.392;13.066;2023-02-11T01:33:34;38.15;;;20.88;;
14074;SDS011;12831;52.392;13.066;2023-02-11T01:36:03;38.55;;;21.20;;
14074;SDS011;12831;52.392;13.066;2023-02-11T01:38:29;37.00;;;21.77;;
14074;SDS011;12831;52.392;13.066;2023-02-11T01:40:57;39.10;;;20.40;;
14074;SDS011;12831;52.392;13.066;2023-02-11T01:43:24;40.17;;;20.95;;
14074;SDS011;12831;52.392;13.066;2023-02-11T01:48:24;37.60;;;21.25;;
14074;SDS011;12831;52.392;13.066;2023-02-11T01:50:52;40.08;;;20.48;;
14074;SDS011;12831;52.392;13.066;2023-02-11T01:53:19;36.50;;;20.27;;
14074;SDS011;12831;52.392;13.066;2023-02-11T01:56:04;35.88;;;21.95;;
14074;SDS011;12831;52.392;13.066;2023-02-11T01:58:48;33.47;;;20.23;;
14074;SDS011;12831;52.392;13.066;2023-02-11T02:01:16;37.20;;;20.42;;
14074;SDS011;12831;52.392;13.066;2023-02-11T02:03:44;34.80;;;20.75;;
14074;SDS011;12831;52.392;13.066;2023-02-11T02:08:41;37.88;;;21.38;;
14074;SDS011;12831;52.392;13.066;2023-02-11T02:11:08;34.65;;;19.67;;
14074;SDS011;12831;52.392;13.066;2023-02-11T02:13:34;42.45;;;21.40;;
14074;SDS011;12831;52.392;13.066;2023-02-11T02:16:06;34.80;;;21.95;;
14074;SDS011;12831;52.392;13.066;2023-02-11T02:18:46;34.35;;;20.48;;
14074;SDS011;12831;52.392;13.066;2023-02-11T02:31:51;39.80;;;22.10;;
14074;SDS011;12831;52.392;13.066;2023-02-11T02:34:29;39.13;;;22.23;;
14074;SDS011;12831;52.392;13.066;2023-02-11T02:37:03;40.25;;;22.25;;
14074;SDS011;12831;52.392;13.066;2023-02-11T02:39:32;34.78;;;20.77;;
14074;SDS011;12831;52.392;13.066;2023-02-11T02:42:00;43.10;;;22.38;;
14074;SDS011;12831;52.392;13.066;2023-02-11T02:44:26;41.75;;;24.10;;
14074;SDS011;12831;52.392;13.066;2023-02-11T02:46:52;36.92;;;24.13;;
14074;SDS011;12831;52.392;13.066;2023-02-11T02:49:18;35.47;;;21.85;;
14074;SDS011;12831;52.392;13.066;2023-02-11T02:51:54;41.35;;;21.23;;
14074;SDS011;12831;52.392;13.066;2023-02-11T02:54:28;39.15;;;23.98;;
14074;SDS011;12831;52.392;13.066;2023-02-11T02:57:17;41.83;;;24.50;;
14074;SDS011;12831;52.392;13.066;2023-02-11T03:07:36;42.10;;;25.23;;
14074;SDS011;12831;52.392;13.066;2023-02-11T03:12:31;37.83;;;23.25;;
14074;SDS011;12831;52.392;13.066;2023-02-11T03:14:58;40.17;;;23.98;;
14074;SDS011;12831;52.392;13.066;2023-02-11T03:17:25;40.15;;;23.92;;
14074;SDS011;12831;52.392;13.066;2023-02-11T03:19:53;40.25;;;22.52;;
14074;SDS011;12831;52.392;13.066;2023-02-11T03:22:21;41.88;;;25.25;;
14074;SDS011;12831;52.392;13.066;2023-02-11T03:24:49;40.58;;;22.90;;
14074;SDS011;12831;52.392;13.066;2023-02-11T03:27:25;43.08;;;24.60;;
14074;SDS011;12831;52.392;13.066;2023-02-11T03:29:58;36.80;;;23.48;;
14074;SDS011;12831;52.392;13.066;2023-02-11T03:32:32;42.92;;;24.38;;
14074;SDS011;12831;52.392;13.066;2023-02-11T03:35:03;44.28;;;25.80;;
14074;SDS011;12831;52.392;13.066;2023-02-11T03:37:38;45.45;;;25.38;;
14074;SDS011;12831;52.392;13.066;2023-02-11T03:40:06;40.75;;;23.98;;
14074;SDS011;12831;52.392;13.066;2023-02-11T03:42:38;41.17;;;24.10;;
14074;SDS011;12831;52.392;13.066;2023-02-11T03:45:07;38.75;;;23.52;;
14074;SDS011;12831;52.392;13.066;2023-02-11T03:47:34;42.38;;;25.45;;
14074;SDS011;12831;52.392;13.066;2023-02-11T03:50:02;43.53;;;24.77;;
14074;SDS011;12831;52.392;13.066;2023-02-11T03:52:29;43.08;;;24.20;;
14074;SDS011;12831;52.392;13.066;2023-02-11T03:54:55;39.47;;;24.55;;
14074;SDS011;12831;52.392;13.066;2023-02-11T03:57:22;43.28;;;26.13;;
14074;SDS011;12831;52.392;13.066;2023-02-11T03:59:49;42.90;;;26.20;;
14074;SDS011;12831;52.392;13.066;2023-02-11T04:02:15;37.53;;;24.60;;
14074;SDS011;12831;52.392;13.066;2023-02-11T04:04:41;44.40;;;24.92;;
14074;SDS011;12831;52.392;13.066;2023-02-11T04:07:07;47.33;;;27.05;;
14074;SDS011;12831;52.392;13.066;2023-02-11T04:09:33;44.50;;;27.50;;
14074;SDS011;12831;52.392;13.066;2023-02-11T04:12:01;45.25;;;25.83;;
14074;SDS011;12831;52.392;13.066;2023-02-11T04:14:27;42.63;;;25.75;;
14074;SDS011;12831;52.392;13.066;2023-02-11T04:16:53;45.10;;;25.50;;
14074;SDS011;12831;52.392;13.066;2023-02-11T04:19:18;44.53;;;25.55;;
14074;SDS011;12831;52.392;13.066;2023-02-11T04:21:44;50.65;;;28.35;;
14074;SDS011;12831;52.392;13.066;2023-02-11T04:24:10;42.35;;;25.13;;
14074;SDS011;12831;52.392;13.066;2023-02-11T04:26:35;43.10;;;25.33;;
14074;SDS011;12831;52.392;13.066;2023-02-11T04:29:01;49.40;;;27.58;;
14074;SDS011;12831;52.392;13.066;2023-02-11T04:31:27;44.97;;;26.02;;
14074;SDS011;12831;52.392;13.066;2023-02-11T04:33:53;43.10;;;25.85;;
14074;SDS011;12831;52.392;13.066;2023-02-11T04:36:19;44.20;;;26.33;;
14074;SDS011;12831;52.392;13.066;2023-02-11T04:38:44;49.15;;;26.10;;
14074;SDS011;12831;52.392;13.066;2023-02-11T04:41:10;44.17;;;28.77;;
14074;SDS011;12831;52.392;13.066;2023-02-11T04:43:36;45.17;;;26.42;;
14074;SDS011;12831;52.392;13.066;2023-02-11T04:46:02;47.40;;;28.42;;
14074;SDS011;12831;52.392;13.066;2023-02-11T04:48:27;45.38;;;28.30;;
14074;SDS011;12831;52.392;13.066;2023-02-11T04:50:53;50.70;;;30.08;;
14074;SDS011;12831;52.392;13.066;2023-02-11T04:53:19;44.65;;;28.17;;
14074;SDS011;12831;52.392;13.066;2023-02-11T04:55:47;50.45;;;29.10;;
14074;SDS011;12831;52.392;13.066;2023-02-11T04:58:13;46.67;;;28.08;;
14074;SDS011;12831;52.392;13.066;2023-02-11T05:00:39;50.92;;;28.95;;
14074;SDS011;12831;52.392;13.066;2023-02-11T05:03:05;42.80;;;27.02;;
14074;SDS011;12831;52.392;13.066;2023-02-11T05:05:30;46.55;;;26.75;;
14074;SDS011;12831;52.392;13.066;2023-02-11T05:07:56;41.22;;;25.83;;
14074;SDS011;12831;52.392;13.066;2023-02-11T05:10:22;44.60;;;26.55;;
14074;SDS011;12831;52.392;13.066;2023-02-11T05:12:48;45.95;;;27.42;;
14074;SDS011;12831;52.392;13.066;2023-02-11T05:15:14;45.10;;;28.48;;
14074;SDS011;12831;52.392;13.066;2023-02-11T05:17:40;45.88;;;27.30;;
14074;SDS011;12831;52.392;13.066;2023-02-11T05:20:05;48.70;;;26.60;;
14074;SDS011;12831;52.392;13.066;2023-02-11T05:22:31;47.88;;;27.45;;
14074;SDS011;12831;52.392;13.066;2023-02-11T05:24:57;50.25;;;29.58;;
14074;SDS011;12831;52.392;13.066;2023-02-11T05:27:23;56.33;;;29.23;;
14074;SDS011;12831;52.392;13.066;2023-02-11T05:29:48;47.97;;;29.67;;
14074;SDS011;12831;52.392;13.066;2023-02-11T05:32:14;47.47;;;29.95;;
14074;SDS011;12831;52.392;13.066;2023-02-11T05:34:40;52.25;;;27.90;;
14074;SDS011;12831;52.392;13.066;2023-02-11T05:37:06;59.22;;;31.05;;
14074;SDS011;12831;52.392;13.066;2023-02-11T05:39:31;50.35;;;30.50;;
14074;SDS011;12831;52.392;13.066;2023-02-11T05:41:57;53.65;;;29.85;;
14074;SDS011;12831;52.392;13.066;2023-02-11T05:44:23;50.78;;;29.40;;
14074;SDS011;12831;52.392;13.066;2023-02-11T05:46:49;52.25;;;28.98;;
14074;SDS011;12831;52.392;13.066;2023-02-11T05:49:15;45.55;;;29.30;;
14074;SDS011;12831;52.392;13.066;2023-02-11T05:51:41;46.38;;;29.15;;
14074;SDS011;12831;52.392;13.066;2023-02-11T05:54:06;52.30;;;30.77;;
14074;SDS011;12831;52.392;13.066;2023-02-11T05:56:32;51.30;;;30.98;;
14074;SDS011;12831;52.392;13.066;2023-02-11T05:58:58;52.60;;;30.25;;
14074;SDS011;12831;52.392;13.066;2023-02-11T06:01:24;48.75;;;30.30;;
14074;SDS011;12831;52.392;13.066;2023-02-11T06:03:50;54.95;;;30.92;;
14074;SDS011;12831;52.392;13.066;2023-02-11T06:06:16;50.33;;;28.92;;
14074;SDS011;12831;52.392;13.066;2023-02-11T06:08:42;53.55;;;31.77;;
14074;SDS011;12831;52.392;13.066;2023-02-11T06:11:08;50.58;;;29.73;;
14074;SDS011;12831;52.392;13.066;2023-02-11T06:13:34;54.90;;;32.30;;
14074;SDS011;12831;52.392;13.066;2023-02-11T06:16:00;50.45;;;30.70;;
14074;SDS011;12831;52.392;13.066;2023-02-11T06:18:27;48.85;;;29.77;;
14074;SDS011;12831;52.392;13.066;2023-02-11T06:20:53;55.38;;;28.92;;
14074;SDS011;12831;52.392;13.066;2023-02-11T06:23:19;51.33;;;31.02;;
14074;SDS011;12831;52.392;13.066;2023-02-11T06:25:45;55.58;;;33.05;;
14074;SDS011;12831;52.392;13.066;2023-02-11T06:28:11;54.45;;;34.05;;
14074;SDS011;12831;52.392;13.066;2023-02-11T06:30:37;58.42;;;33.10;;
14074;SDS011;12831;52.392;13.066;2023-02-11T06:33:03;51.05;;;31.98;;
14074;SDS011;12831;52.392;13.066;2023-02-11T06:35:29;58.08;;;31.92;;
14074;SDS011;12831;52.392;13.066;2023-02-11T06:37:55;53.10;;;32.45;;
14074;SDS011;12831;52.392;13.066;2023-02-11T06:40:20;57.05;;;31.50;;
14074;SDS011;12831;52.392;13.066;2023-02-11T06:42:46;53.92;;;31.25;;
14074;SDS011;12831;52.392;13.066;2023-02-11T06:45:12;51.70;;;32.85;;
14074;SDS011;12831;52.392;13.066;2023-02-11T06:47:38;55.55;;;33.75;;
14074;SDS011;12831;52.392;13.066;2023-02-11T06:50:05;54.22;;;33.67;;
14074;SDS011;12831;52.392;13.066;2023-02-11T06:52:32;58.70;;;32.15;;
14074;SDS011;12831;52.392;13.066;2023-02-11T06:54:58;54.15;;;31.85;;
14074;SDS011;12831;52.392;13.066;2023-02-11T06:57:24;55.72;;;31.17;;
14074;SDS011;12831;52.392;13.066;2023-02-11T06:59:49;51.60;;;30.73;;
14074;SDS011;12831;52.392;13.066;2023-02-11T07:02:15;53.85;;;30.98;;
14074;SDS011;12831;52.392;13.066;2023-02-11T07:04:44;55.30;;;31.25;;
14074;SDS011;12831;52.392;13.066;2023-02-11T07:07:11;56.38;;;32.85;;
14074;SDS011;12831;52.392;13.066;2023-02-11T07:09:37;56.17;;;31.80;;
14074;SDS011;12831;52.392;13.066;2023-02-11T07:12:03;60.03;;;32.40;;
14074;SDS011;12831;52.392;13.066;2023-02-11T07:14:28;62.10;;;33.42;;
14074;SDS011;12831;52.392;13.066;2023-02-11T07:16:54;48.90;;;29.75;;
14074;SDS011;12831;52.392;13.066;2023-02-11T07:19:20;54.50;;;31.25;;
14074;SDS011;12831;52.392;13.066;2023-02-11T07:21:46;54.28;;;32.53;;
14074;SDS011;12831;52.392;13.066;2023-02-11T07:24:13;53.67;;;32.70;;
14074;SDS011;12831;52.392;13.066;2023-02-11T07:26:39;51.47;;;29.30;;
14074;SDS011;12831;52.392;13.066;2023-02-11T07:29:05;48.97;;;30.83;;
14074;SDS011;12831;52.392;13.066;2023-02-11T07:31:31;61.42;;;32.33;;
14074;SDS011;12831;52.392;13.066;2023-02-11T07:33:59;51.72;;;32.47;;
14074;SDS011;12831;52.392;13.066;2023-02-11T07:36:26;55.08;;;31.40;;
14074;SDS011;12831;52.392;13.066;2023-02-11T07:38:52;52.40;;;30.52;;
14074;SDS011;12831;52.392;13.066;2023-02-11T07:41:19;49.53;;;30.60;;
14074;SDS011;12831;52.392;13.066;2023-02-11T07:43:45;50.40;;;31.13;;
14074;SDS011;12831;52.392;13.066;2023-02-11T07:46:18;54.35;;;32.83;;
14074;SDS011;12831;52.392;13.066;2023-02-11T07:48:45;45.45;;;29.27;;
14074;SDS011;12831;52.392;13.066;2023-02-11T07:51:12;49.15;;;28.70;;
14074;SDS011;12831;52.392;13.066;2023-02-11T07:53:38;48.30;;;29.38;;
14074;SDS011;12831;52.392;13.066;2023-02-11T07:56:04;52.35;;;29.77;;
14074;SDS011;12831;52.392;13.066;2023-02-11T07:58:30;59.00;;;27.20;;
14074;SDS011;12831;52.392;13.066;2023-02-11T08:01:00;52.70;;;29.65;;
14074;SDS011;12831;52.392;13.066;2023-02-11T08:03:26;48.88;;;29.13;;
14074;SDS011;12831;52.392;13.066;2023-02-11T08:05:52;46.88;;;27.92;;
14074;SDS011;12831;52.392;13.066;2023-02-11T08:08:18;50.20;;;29.45;;
14074;SDS011;12831;52.392;13.066;2023-02-11T08:10:44;51.40;;;28.98;;
14074;SDS011;12831;52.392;13.066;2023-02-11T08:13:10;49.15;;;28.10;;
14074;SDS011;12831;52.392;13.066;2023-02-11T08:15:36;50.70;;;29.67;;
14074;SDS011;12831;52.392;13.066;2023-02-11T08:18:01;51.15;;;30.20;;
14074;SDS011;12831;52.392;13.066;2023-02-11T08:20:27;45.80;;;27.05;;
14074;SDS011;12831;52.392;13.066;2023-02-11T08:22:53;46.45;;;27.05;;
14074;SDS011;12831;52.392;13.066;2023-02-11T08:25:19;42.97;;;26.75;;
14074;SDS011;12831;52.392;13.066;2023-02-11T08:27:45;46.90;;;26.25;;
14074;SDS011;12831;52.392;13.066;2023-02-11T08:30:11;49.70;;;27.42;;
14074;SDS011;12831;52.392;13.066;2023-02-11T08:32:36;46.58;;;25.98;;
14074;SDS011;12831;52.392;13.066;2023-02-11T08:35:04;47.58;;;26.83;;
14074;SDS011;12831;52.392;13.066;2023-02-11T08:37:32;43.33;;;23.27;;
14074;SDS011;12831;52.392;13.066;2023-02-11T08:39:58;42.05;;;26.40;;
14074;SDS011;12831;52.392;13.066;2023-02-11T08:42:24;42.20;;;27.13;;
14074;SDS011;12831;52.392;13.066;2023-02-11T08:44:49;45.05;;;26.15;;
14074;SDS011;12831;52.392;13.066;2023-02-11T08:47:15;50.00;;;29.40;;
14074;SDS011;12831;52.392;13.066;2023-02-11T08:49:41;46.50;;;27.08;;
14074;SDS011;12831;52.392;13.066;2023-02-11T08:52:07;43.40;;;26.92;;
14074;SDS011;12831;52.392;13.066;2023-02-11T08:54:33;42.90;;;25.20;;
14074;SDS011;12831;52.392;13.066;2023-02-11T08:56:59;42.28;;;26.55;;
14074;SDS011;12831;52.392;13.066;2023-02-11T08:59:26;46.72;;;27.77;;
14074;SDS011;12831;52.392;13.066;2023-02-11T09:01:52;44.63;;;27.20;;
14074;SDS011;12831;52.392;13.066;2023-02-11T09:04:18;44.22;;;26.58;;
14074;SDS011;12831;52.392;13.066;2023-02-11T09:06:44;41.88;;;25.42;;
14074;SDS011;12831;52.392;13.066;2023-02-11T09:09:11;41.72;;;26.13;;
14074;SDS011;12831;52.392;13.066;2023-02-11T09:11:38;42.90;;;24.48;;
14074;SDS011;12831;52.392;13.066;2023-02-11T09:14:05;45.53;;;26.67;;
14074;SDS011;12831;52.392;13.066;2023-02-11T09:16:32;43.75;;;24.50;;
14074;SDS011;12831;52.392;13.066;2023-02-11T09:18:59;41.35;;;26.02;;
14074;SDS011;12831;52.392;13.066;2023-02-11T09:21:25;43.17;;;27.00;;
14074;SDS011;12831;52.392;13.066;2023-02-11T09:23:51;43.30;;;27.40;;
14074;SDS011;12831;52.392;13.066;2023-02-11T09:26:28;46.22;;;26.55;;
14074;SDS011;12831;52.392;13.066;2023-02-11T09:28:54;38.90;;;23.73;;
14074;SDS011;12831;52.392;13.066;2023-02-11T09:31:21;35.35;;;23.52;;
14074;SDS011;12831;52.392;13.066;2023-02-11T09:33:48;43.08;;;24.13;;
14074;SDS011;12831;52.392;13.066;2023-02-11T09:36:19;36.75;;;23.35;;
14074;SDS011;12831;52.392;13.066;2023-02-11T09:38:45;41.10;;;25.30;;
14074;SDS011;12831;52.392;13.066;2023-02-11T09:43:56;36.80;;;22.90;;
14074;SDS011;12831;52.392;13.066;2023-02-11T09:46:23;40.38;;;24.17;;
14074;SDS011;12831;52.392;13.066;2023-02-11T09:48:51;38.05;;;23.92;;
14074;SDS011;12831;52.392;13.066;2023-02-11T09:51:18;46.35;;;24.02;;
14074;SDS011;12831;52.392;13.066;2023-02-11T09:53:45;40.58;;;23.63;;
14074;SDS011;12831;52.392;13.066;2023-02-11T09:56:15;36.03;;;22.57;;
14074;SDS011;12831;52.392;13.066;2023-02-11T09:58:41;38.83;;;22.63;;
14074;SDS011;12831;52.392;13.066;2023-02-11T10:04:00;38.92;;;22.85;;
14074;SDS011;12831;52.392;13.066;2023-02-11T10:06:39;37.67;;;22.95;;
14074;SDS011;12831;52.392;13.066;2023-02-11T10:09:10;39.08;;;23.33;;
14074;SDS011;12831;52.392;13.066;2023-02-11T10:11:46;40.40;;;22.10;;
14074;SDS011;12831;52.392;13.066;2023-02-11T10:19:12;35.85;;;22.05;;
14074;SDS011;12831;52.392;13.066;2023-02-11T10:21:52;38.33;;;22.23;;
14074;SDS011;12831;52.392;13.066;2023-02-11T10:24:23;38.75;;;23.10;;
14074;SDS011;12831;52.392;13.066;2023-02-11T10:26:48;42.65;;;25.00;;
14074;SDS011;12831;52.392;13.066;2023-02-11T10:29:25;33.78;;;21.52;;
14074;SDS011;12831;52.392;13.066;2023-02-11T10:31:56;35.92;;;24.17;;
14074;SDS011;12831;52.392;13.066;2023-02-11T10:34:23;35.80;;;23.13;;
14074;SDS011;12831;52.392;13.066;2023-02-11T10:36:49;36.65;;;22.83;;
14074;SDS011;12831;52.392;13.066;2023-02-11T10:39:19;35.60;;;21.83;;
14074;SDS011;12831;52.392;13.066;2023-02-11T10:44:30;39.67;;;24.60;;
14074;SDS011;12831;52.392;13.066;2023-02-11T10:46:56;35.05;;;21.38;;
14074;SDS011;12831;52.392;13.066;2023-02-11T10:49:40;43.10;;;24.50;;
14074;SDS011;12831;52.392;13.066;2023-02-11T10:54:39;33.33;;;21.60;;
14074;SDS011;12831;52.392;13.066;2023-02-11T10:57:05;43.55;;;23.83;;
14074;SDS011;12831;52.392;13.066;2023-02-11T10:59:33;40.55;;;21.73;;
14074;SDS011;12831;52.392;13.066;2023-02-11T11:02:15;38.28;;;22.40;;
14074;SDS011;12831;52.392;13.066;2023-02-11T11:04:43;37.13;;;21.92;;
14074;SDS011;12831;52.392;13.066;2023-02-11T11:07:20;34.00;;;22.60;;
14074;SDS011;12831;52.392;13.066;2023-02-11T11:09:48;41.50;;;21.52;;
14074;SDS011;12831;52.392;13.066;2023-02-11T11:17:28;35.40;;;22.02;;
14074;SDS011;12831;52.392;13.066;2023-02-11T11:22:40;39.53;;;22.08;;
14074;SDS011;12831;52.392;13.066;2023-02-11T11:25:19;33.75;;;21.50;;
14074;SDS011;12831;52.392;13.066;2023-02-11T11:27:49;39.63;;;21.67;;
14074;SDS011;12831;52.392;13.066;2023-02-11T11:30:15;38.83;;;22.67;;
14074;SDS011;12831;52.392;13.066;2023-02-11T11:32:41;38.78;;;22.92;;
14074;SDS011;12831;52.392;13.066;2023-02-11T11:35:19;31.25;;;19.73;;
14074;SDS011;12831;52.392;13.066;2023-02-11T11:37:50;36.83;;;21.35;;
14074;SDS011;12831;52.392;13.066;2023-02-11T11:42:46;37.05;;;22.08;;
14074;SDS011;12831;52.392;13.066;2023-02-11T11:45:26;32.67;;;20.05;;
14074;SDS011;12831;52.392;13.066;2023-02-11T11:47:55;34.92;;;20.98;;
14074;SDS011;12831;52.392;13.066;2023-02-11T11:50:28;31.50;;;20.52;;
14074;SDS011;12831;52.392;13.066;2023-02-11T11:52:58;35.80;;;21.88;;
14074;SDS011;12831;52.392;13.066;2023-02-11T11:55:37;40.35;;;21.88;;
14074;SDS011;12831;52.392;13.066;2023-02-11T11:58:04;36.38;;;20.90;;
14074;SDS011;12831;52.392;13.066;2023-02-11T12:00:36;36.17;;;21.00;;
14074;SDS011;12831;52.392;13.066;2023-02-11T12:11:00;27.52;;;16.83;;
14074;SDS011;12831;52.392;13.066;2023-02-11T12:15:56;34.70;;;19.00;;
14074;SDS011;12831;52.392;13.066;2023-02-11T12:18:33;25.98;;;16.90;;
14074;SDS011;12831;52.392;13.066;2023-02-11T12:21:13;28.13;;;17.17;;
14074;SDS011;12831;52.392;13.066;2023-02-11T12:26:18;29.17;;;16.58;;
14074;SDS011;12831;52.392;13.066;2023-02-11T12:37:17;23.52;;;14.23;;
14074;SDS011;12831;52.392;13.066;2023-02-11T12:45:18;22.25;;;13.77;;
14074;SDS011;12831;52.392;13.066;2023-02-11T12:55:49;20.70;;;13.07;;
14074;SDS011;12831;52.392;13.066;2023-02-11T12:58:20;22.33;;;13.88;;
14074;SDS011;12831;52.392;13.066;2023-02-11T13:01:02;23.48;;;14.65;;
14074;SDS011;12831;52.392;13.066;2023-02-11T13:03:36;20.88;;;13.80;;
14074;SDS011;12831;52.392;13.066;2023-02-11T13:06:07;19.23;;;12.57;;
14074;SDS011;12831;52.392;13.066;2023-02-11T13:08:44;19.58;;;14.82;;
14074;SDS011;12831;52.392;13.066;2023-02-11T13:11:12;19.38;;;13.48;;
14074;SDS011;12831;52.392;13.066;2023-02-11T13:16:20;26.35;;;14.07;;
14074;SDS011;12831;52.392;13.066;2023-02-11T13:19:07;21.00;;;13.88;;
14074;SDS011;12831;52.392;13.066;2023-02-11T13:29:21;18.38;;;13.65;;
14074;SDS011;12831;52.392;13.066;2023-02-11T13:31:55;20.80;;;12.45;;
14074;SDS011;12831;52.392;13.066;2023-02-11T13:34:56;24.02;;;15.15;;
14074;SDS011;12831;52.392;13.066;2023-02-11T13:37:24;19.88;;;11.82;;
14074;SDS011;12831;52.392;13.066;2023-02-11T13:42:31;19.30;;;12.35;;
14074;SDS011;12831;52.392;13.066;2023-02-11T13:44:59;21.02;;;13.55;;
14074;SDS011;12831;52.392;13.066;2023-02-11T13:47:26;20.08;;;12.55;;
14074;SDS011;12831;52.392;13.066;2023-02-11T13:49:56;20.67;;;12.38;;
14074;SDS011;12831;52.392;13.066;2023-02-11T13:52:27;20.00;;;13.45;;
14074;SDS011;12831;52.392;13.066;2023-02-11T13:54:54;21.35;;;12.63;;
14074;SDS011;12831;52.392;13.066;2023-02-11T13:57:26;22.55;;;12.77;;
14074;SDS011;12831;52.392;13.066;2023-02-11T13:59:59;19.63;;;11.50;;
14074;SDS011;12831;52.392;13.066;2023-02-11T14:21:09;16.52;;;10.75;;
14074;SDS011;12831;52.392;13.066;2023-02-11T14:23:39;17.17;;;10.18;;
14074;SDS011;12831;52.392;13.066;2023-02-11T14:28:34;17.33;;;10.52;;
14074;SDS011;12831;52.392;13.066;2023-02-11T14:31:07;24.30;;;11.40;;
14074;SDS011;12831;52.392;13.066;2023-02-11T14:36:22;17.77;;;9.43;;
14074;SDS011;12831;52.392;13.066;2023-02-11T14:39:10;16.98;;;10.00;;
14074;SDS011;12831;52.392;13.066;2023-02-11T14:41:42;16.25;;;10.15;;
14074;SDS011;12831;52.392;13.066;2023-02-11T14:44:13;17.70;;;10.50;;
14074;SDS011;12831;52.392;13.066;2023-02-11T14:46:42;14.75;;;9.93;;
14074;SDS011;12831;52.392;13.066;2023-02-11T14:49:11;14.85;;;10.18;;
14074;SDS011;12831;52.392;13.066;2023-02-11T14:51:41;15.90;;;9.38;;
14074;SDS011;12831;52.392;13.066;2023-02-11T14:54:14;16.17;;;10.52;;
14074;SDS011;12831;52.392;13.066;2023-02-11T14:56:41;17.85;;;8.90;;
14074;SDS011;12831;52.392;13.066;2023-02-11T14:59:14;15.52;;;10.65;;
14074;SDS011;12831;52.392;13.066;2023-02-11T15:01:41;16.23;;;9.13;;
14074;SDS011;12831;52.392;13.066;2023-02-11T15:04:24;21.70;;;10.27;;
14074;SDS011;12831;52.392;13.066;2023-02-11T15:06:50;17.45;;;10.55;;
14074;SDS011;12831;52.392;13.066;2023-02-11T15:09:19;18.45;;;10.75;;
14074;SDS011;12831;52.392;13.066;2023-02-11T15:11:48;18.52;;;9.82;;
14074;SDS011;12831;52.392;13.066;2023-02-11T15:14:22;14.68;;;10.07;;
14074;SDS011;12831;52.392;13.066;2023-02-11T15:16:48;15.10;;;10.07;;
14074;SDS011;12831;52.392;13.066;2023-02-11T15:19:26;14.52;;;9.90;;
14074;SDS011;12831;52.392;13.066;2023-02-11T15:21:54;20.42;;;10.85;;
14074;SDS011;12831;52.392;13.066;2023-02-11T15:27:03;14.48;;;9.10;;
14074;SDS011;12831;52.392;13.066;2023-02-11T15:29:42;12.10;;;8.77;;
14074;SDS011;12831;52.392;13.066;2023-02-11T15:34:41;14.93;;;10.13;;
14074;SDS011;12831;52.392;13.066;2023-02-11T15:37:11;17.40;;;9.55;;
14074;SDS011;12831;52.392;13.066;2023-02-11T15:39:38;15.38;;;11.00;;
14074;SDS011;12831;52.392;13.066;2023-02-11T15:42:17;16.77;;;9.55;;
14074;SDS011;12831;52.392;13.066;2023-02-11T15:44:44;17.67;;;10.02;;
14074;SDS011;12831;52.392;13.066;2023-02-11T15:47:10;16.88;;;10.90;;
14074;SDS011;12831;52.392;13.066;2023-02-11T15:49:36;16.60;;;10.38;;
14074;SDS011;12831;52.392;13.066;2023-02-11T15:52:03;15.93;;;10.75;;
14074;SDS011;12831;52.392;13.066;2023-02-11T15:54:28;13.82;;;9.57;;
14074;SDS011;12831;52.392;13.066;2023-02-11T15:57:03;17.73;;;11.40;;
14074;SDS011;12831;52.392;13.066;2023-02-11T15:59:38;17.35;;;11.00;;
14074;SDS011;12831;52.392;13.066;2023-02-11T16:02:06;18.02;;;11.20;;
14074;SDS011;12831;52.392;13.066;2023-02-11T16:04:50;18.13;;;10.40;;
14074;SDS011;12831;52.392;13.066;2023-02-11T16:10:01;17.20;;;11.55;;
14074;SDS011;12831;52.392;13.066;2023-02-11T16:12:27;16.98;;;11.27;;
14074;SDS011;12831;52.392;13.066;2023-02-11T16:14:54;17.10;;;10.90;;
14074;SDS011;12831;52.392;13.066;2023-02-11T16:17:24;18.42;;;11.30;;
14074;SDS011;12831;52.392;13.066;2023-02-11T16:19:52;17.38;;;10.88;;
14074;SDS011;12831;52.392;13.066;2023-02-11T16:22:25;15.73;;;11.65;;
14074;SDS011;12831;52.392;13.066;2023-02-11T16:24:52;16.60;;;11.25;;
14074;SDS011;12831;52.392;13.066;2023-02-11T16:27:21;16.20;;;10.70;;